createdAt,value
2018-09-29T00:00:45.989Z,8.93
2018-09-29T00:03:15.672Z,3.83
2018-09-29T00:05:45.343Z,14.18
2018-09-29T00:08:15.096Z,6.72
2018-09-29T00:10:44.814Z,5.75
2018-09-29T00:13:14.529Z,7.50
2018-09-29T00:15:44.293Z,9.68
2018-09-29T00:18:14.009Z,6.40
2018-09-29T00:20:43.761Z,11.65
2018-09-29T00:23:13.417Z,13.18
2018-09-29T00:25:43.242Z,5.22
2018-09-29T00:28:13.021Z,13.40
2018-09-29T00:30:42.699Z,5.40
2018-09-29T00:33:12.582Z,9.40
2018-09-29T00:35:42.219Z,10.58
2018-09-29T00:38:12.017Z,7.37
2018-09-29T00:40:41.664Z,6.12
2018-09-29T00:43:11.420Z,4.53
2018-09-29T00:45:41.212Z,4.78
2018-09-29T00:48:11.098Z,6.90
2018-09-29T00:50:40.801Z,8.18
2018-09-29T00:53:10.506Z,6.33
2018-09-29T00:55:40.168Z,9.03
2018-09-29T00:58:09.841Z,13.10
2018-09-29T01:00:39.573Z,6.22
2018-09-29T01:03:09.262Z,10.88
2018-09-29T01:05:38.986Z,11.20
2018-09-29T01:08:08.641Z,7.53
2018-09-29T01:10:38.325Z,6.17
2018-09-29T01:13:08.545Z,6.80
2018-09-29T01:15:38.421Z,7.33
2018-09-29T01:18:08.782Z,10.08
2018-09-29T01:20:38.505Z,10.55
2018-09-29T01:23:08.169Z,6.37
2018-09-29T01:25:37.877Z,13.25
2018-09-29T01:28:07.687Z,8.88
2018-09-29T01:30:37.348Z,9.53
2018-09-29T01:33:07.317Z,14.10
2018-09-29T01:35:37.015Z,13.85
2018-09-29T01:38:06.985Z,13.60
2018-09-29T01:40:36.649Z,14.70
2018-09-29T01:43:06.515Z,11.48
2018-09-29T01:45:36.243Z,14.05
2018-09-29T01:48:06.068Z,12.18
2018-09-29T01:50:35.797Z,11.43
2018-09-29T01:53:05.472Z,7.50
2018-09-29T01:55:35.394Z,8.83
2018-09-29T01:58:05.328Z,9.45
2018-09-29T02:00:35.041Z,8.43
2018-09-29T02:03:10.668Z,9.65
2018-09-29T02:05:41.727Z,19.80
2018-09-29T02:08:11.419Z,14.23
2018-09-29T02:10:41.053Z,11.38
2018-09-29T02:13:10.789Z,11.60
2018-09-29T02:15:40.470Z,10.48
2018-09-29T02:18:10.228Z,9.53
2018-09-29T02:20:39.950Z,7.08
2018-09-29T02:23:09.656Z,10.15
2018-09-29T02:25:39.437Z,11.75
2018-09-29T02:28:09.135Z,7.78
2018-09-29T02:30:38.841Z,6.50
2018-09-29T02:33:08.506Z,10.15
2018-09-29T02:35:38.242Z,8.03
2018-09-29T02:38:08.046Z,15.60
2018-09-29T02:40:37.721Z,11.53
2018-09-29T02:43:07.589Z,12.05
2018-09-29T02:45:37.218Z,7.95
2018-09-29T02:48:07.120Z,7.55
2018-09-29T02:50:36.936Z,11.12
2018-09-29T02:53:06.714Z,10.72
2018-09-29T02:55:36.398Z,9.13
2018-09-29T02:58:06.120Z,8.70
2018-09-29T03:00:36.112Z,9.30
2018-09-29T03:03:05.898Z,5.35
2018-09-29T03:05:35.609Z,12.30
2018-09-29T03:08:05.329Z,9.10
2018-09-29T03:10:35.041Z,7.95
2018-09-29T03:13:04.726Z,10.05
2018-09-29T03:15:34.380Z,7.80
2018-09-29T03:18:04.127Z,8.50
2018-09-29T03:20:33.750Z,12.55
2018-09-29T03:23:03.596Z,5.40
2018-09-29T03:25:33.238Z,8.90
2018-09-29T03:28:03.001Z,12.03
2018-09-29T03:30:32.650Z,7.80
2018-09-29T03:33:02.341Z,7.30
2018-09-29T03:35:32.238Z,7.85
2018-09-29T03:38:01.949Z,6.80
2018-09-29T03:40:31.722Z,11.30
2018-09-29T03:43:01.401Z,8.08
2018-09-29T03:45:31.052Z,11.85
2018-09-29T03:48:00.769Z,4.25
2018-09-29T03:50:30.423Z,6.30
2018-09-29T03:53:00.217Z,6.70
2018-09-29T03:55:29.817Z,7.50
2018-09-29T03:57:59.499Z,13.68
2018-09-29T04:00:29.113Z,10.53
2018-09-29T04:02:58.884Z,5.95
2018-09-29T04:05:28.558Z,8.05
2018-09-29T04:07:58.172Z,3.45
2018-09-29T04:10:27.952Z,11.33
2018-09-29T04:12:57.792Z,5.33
2018-09-29T04:15:27.521Z,5.22
2018-09-29T04:17:57.331Z,5.15
2018-09-29T04:20:27.081Z,14.45
2018-09-29T04:22:56.832Z,12.40
2018-09-29T04:25:26.726Z,7.78
2018-09-29T04:27:56.454Z,10.50
2018-09-29T04:30:26.125Z,6.20
2018-09-29T04:32:55.869Z,8.80
2018-09-29T04:35:25.483Z,9.73
2018-09-29T04:37:55.323Z,6.53
2018-09-29T04:40:25.018Z,9.28
2018-09-29T04:42:54.643Z,6.60
2018-09-29T04:45:24.300Z,7.00
2018-09-29T04:47:53.906Z,21.02
2018-09-29T04:50:23.543Z,7.45
2018-09-29T04:52:53.222Z,13.90
2018-09-29T04:55:22.896Z,6.87
2018-09-29T04:57:52.574Z,8.38
2018-09-29T05:00:22.320Z,10.58
2018-09-29T05:02:52.062Z,5.25
2018-09-29T05:05:21.750Z,5.85
2018-09-29T05:07:51.405Z,6.85
2018-09-29T05:10:21.373Z,6.22
2018-09-29T05:12:51.037Z,11.90
2018-09-29T05:15:20.864Z,8.98
2018-09-29T05:17:50.488Z,5.75
2018-09-29T05:20:20.193Z,9.78
2018-09-29T05:22:49.812Z,10.15
2018-09-29T05:25:19.528Z,5.83
2018-09-29T05:27:49.210Z,13.25
2018-09-29T05:30:18.908Z,6.67
2018-09-29T05:32:48.590Z,5.47
2018-09-29T05:35:18.226Z,4.78
2018-09-29T05:37:47.953Z,11.43
2018-09-29T05:40:17.664Z,10.03
2018-09-29T05:42:47.315Z,6.20
2018-09-29T05:45:17.141Z,3.92
2018-09-29T05:47:46.962Z,9.30
2018-09-29T05:50:16.968Z,11.22
2018-09-29T05:52:46.606Z,6.62
2018-09-29T05:55:16.396Z,9.08
2018-09-29T05:57:46.182Z,9.60
2018-09-29T06:00:16.312Z,8.50
2018-09-29T06:02:45.890Z,6.78
2018-09-29T06:05:15.624Z,7.15
2018-09-29T06:07:46.343Z,8.60
2018-09-29T06:10:16.444Z,6.15
2018-09-29T06:12:46.698Z,10.82
2018-09-29T06:15:16.342Z,5.65
2018-09-29T06:17:46.129Z,16.73
2018-09-29T06:20:16.020Z,7.25
2018-09-29T06:22:45.746Z,6.67
2018-09-29T06:25:15.537Z,7.33
2018-09-29T06:27:45.212Z,7.40
2018-09-29T06:30:15.050Z,10.60
2018-09-29T06:32:44.924Z,5.45
2018-09-29T06:35:14.616Z,8.70
2018-09-29T06:37:44.761Z,14.38
2018-09-29T06:40:14.478Z,11.05
2018-09-29T06:42:44.317Z,9.03
2018-09-29T06:45:14.555Z,12.13
2018-09-29T06:47:44.295Z,9.63
2018-09-29T06:50:14.246Z,9.75
2018-09-29T06:52:44.062Z,15.25
2018-09-29T06:55:14.118Z,12.13
2018-09-29T06:57:44.163Z,7.90
2018-09-29T07:00:13.879Z,14.90
2018-09-29T07:02:44.193Z,6.55
2018-09-29T07:05:13.926Z,7.87
2018-09-29T07:07:43.637Z,9.30
2018-09-29T07:10:13.470Z,15.63
2018-09-29T07:12:43.284Z,15.43
2018-09-29T07:17:48.444Z,9.55
2018-09-29T07:20:18.304Z,7.70
2018-09-29T07:22:47.993Z,9.50
2018-09-29T07:25:17.743Z,7.08
2018-09-29T07:27:47.452Z,7.15
2018-09-29T07:30:17.113Z,10.32
2018-09-29T07:32:46.798Z,6.08
2018-09-29T07:35:16.644Z,14.50
2018-09-29T07:37:46.305Z,12.68
2018-09-29T07:40:16.199Z,6.53
2018-09-29T07:42:45.854Z,10.82
2018-09-29T07:45:15.633Z,11.18
2018-09-29T07:47:45.345Z,9.68
2018-09-29T07:50:15.003Z,9.23
2018-09-29T07:52:44.741Z,7.70
2018-09-29T07:55:14.426Z,10.72
2018-09-29T07:57:44.140Z,11.85
2018-09-29T08:00:13.854Z,6.78
2018-09-29T08:02:43.507Z,10.35
2018-09-29T08:05:13.252Z,12.03
2018-09-29T08:07:43.069Z,8.00
2018-09-29T08:10:12.758Z,14.80
2018-09-29T08:12:42.422Z,9.33
2018-09-29T08:15:12.175Z,6.70
2018-09-29T08:17:41.851Z,6.10
2018-09-29T08:20:11.558Z,10.25
2018-09-29T08:22:41.448Z,7.90
2018-09-29T08:25:11.133Z,7.35
2018-09-29T08:27:40.902Z,9.33
2018-09-29T08:30:10.608Z,10.03
2018-09-29T08:32:40.537Z,9.63
2018-09-29T08:35:10.284Z,8.05
2018-09-29T08:37:39.928Z,6.80
2018-09-29T08:40:09.663Z,7.97
2018-09-29T08:42:39.389Z,13.20
2018-09-29T08:45:09.221Z,7.37
2018-09-29T08:47:38.940Z,5.63
2018-09-29T08:50:08.743Z,30.27
2018-09-29T08:52:38.422Z,8.40
2018-09-29T08:55:08.166Z,9.97
2018-09-29T08:57:37.918Z,7.87
2018-09-29T09:00:07.887Z,7.13
2018-09-29T09:02:37.584Z,7.67
2018-09-29T09:05:07.341Z,9.50
2018-09-29T09:07:37.130Z,12.10
2018-09-29T09:10:06.825Z,10.50
2018-09-29T09:12:36.582Z,10.60
2018-09-29T09:15:06.245Z,9.37
2018-09-29T09:17:35.885Z,4.53
2018-09-29T09:20:05.810Z,6.87
2018-09-29T09:22:35.734Z,7.13
2018-09-29T09:25:05.514Z,6.10
2018-09-29T09:27:35.217Z,9.43
2018-09-29T09:30:05.144Z,6.17
2018-09-29T09:32:34.785Z,7.67
2018-09-29T09:35:04.537Z,8.33
2018-09-29T09:37:34.321Z,6.50
2018-09-29T09:40:04.006Z,9.57
2018-09-29T09:42:33.938Z,6.30
2018-09-29T09:45:03.585Z,6.23
2018-09-29T09:47:33.338Z,5.57
2018-09-29T09:50:03.134Z,5.00
2018-09-29T09:52:33.021Z,4.70
2018-09-29T09:55:02.753Z,6.60
2018-09-29T09:57:32.601Z,4.80
2018-09-29T10:00:02.479Z,4.30
2018-09-29T10:02:37.453Z,5.17
2018-09-29T10:05:07.561Z,8.30
2018-09-29T10:07:37.254Z,7.93
2018-09-29T10:10:07.186Z,4.80
2018-09-29T10:12:36.876Z,5.90
2018-09-29T10:15:06.833Z,6.77
2018-09-29T10:17:37.092Z,8.60
2018-09-29T10:20:07.290Z,6.20
2018-09-29T10:22:36.983Z,5.23
2018-09-29T10:25:06.884Z,4.37
2018-09-29T10:27:36.805Z,4.93
2018-09-29T10:30:07.471Z,4.23
2018-09-29T10:32:37.200Z,4.87
2018-09-29T10:35:07.245Z,5.93
2018-09-29T10:37:37.232Z,3.80
2018-09-29T10:40:07.466Z,5.63
2018-09-29T10:42:37.111Z,4.47
2018-09-29T10:45:06.934Z,8.70
2018-09-29T10:47:36.761Z,7.20
2018-09-29T10:50:06.636Z,8.20
2018-09-29T10:52:36.353Z,3.60
2018-09-29T10:55:06.035Z,4.97
2018-09-29T10:57:35.808Z,8.70
2018-09-29T11:00:05.661Z,9.07
2018-09-29T11:02:35.462Z,5.60
2018-09-29T11:05:05.329Z,5.97
2018-09-29T11:07:34.972Z,7.03
2018-09-29T11:10:04.757Z,5.00
2018-09-29T11:12:34.561Z,4.40
2018-09-29T11:15:04.377Z,10.47
2018-09-29T11:17:34.104Z,7.23
2018-09-29T11:20:03.875Z,3.13
2018-09-29T11:22:33.529Z,9.30
2018-09-29T11:25:03.485Z,2.97
2018-09-29T11:27:33.236Z,4.93
2018-09-29T11:30:03.143Z,4.83
2018-09-29T11:32:33.022Z,6.50
2018-09-29T11:35:02.935Z,5.43
2018-09-29T11:37:32.798Z,3.07
2018-09-29T11:40:02.516Z,4.80
2018-09-29T11:42:32.307Z,2.83
2018-09-29T11:45:02.257Z,6.50
2018-09-29T11:47:31.996Z,5.10
2018-09-29T11:50:01.794Z,8.73
2018-09-29T11:52:31.516Z,4.87
2018-09-29T11:55:01.236Z,4.70
2018-09-29T11:57:32.298Z,10.50
2018-09-29T12:00:02.113Z,7.53
2018-09-29T12:02:32.145Z,5.27
2018-09-29T12:05:02.009Z,3.90
2018-09-29T12:07:31.914Z,8.20
2018-09-29T12:10:01.594Z,5.63
2018-09-29T12:12:31.337Z,5.77
2018-09-29T12:15:01.082Z,5.40
2018-09-29T12:17:30.813Z,3.50
2018-09-29T12:20:00.528Z,4.93
2018-09-29T12:22:30.173Z,2.37
2018-09-29T12:24:59.837Z,4.00
2018-09-29T12:27:29.602Z,6.17
2018-09-29T12:29:59.460Z,8.90
2018-09-29T12:32:29.255Z,4.20
2018-09-29T12:34:58.983Z,3.93
2018-09-29T12:37:28.854Z,3.17
2018-09-29T12:39:58.690Z,7.03
2018-09-29T12:42:28.397Z,3.30
2018-09-29T12:44:58.125Z,4.80
2018-09-29T12:47:27.830Z,3.07
2018-09-29T12:49:57.492Z,4.83
2018-09-29T12:52:27.186Z,4.53
2018-09-29T12:54:57.016Z,2.50
2018-09-29T12:57:26.697Z,3.93
2018-09-29T12:59:56.388Z,5.50
2018-09-29T13:02:26.133Z,4.43
2018-09-29T13:04:55.859Z,2.57
2018-09-29T13:07:25.675Z,4.30
2018-09-29T13:09:55.398Z,5.83
2018-09-29T13:12:25.092Z,3.60
2018-09-29T13:14:54.809Z,3.00
2018-09-29T13:17:24.498Z,4.03
2018-09-29T13:19:54.222Z,3.13
2018-09-29T13:22:23.905Z,3.37
2018-09-29T13:24:53.641Z,4.80
2018-09-29T13:27:23.367Z,6.13
2018-09-29T13:29:53.350Z,3.23
2018-09-29T13:32:23.196Z,4.80
2018-09-29T13:34:53.026Z,4.37
2018-09-29T13:37:22.754Z,5.23
2018-09-29T13:39:52.558Z,4.00
2018-09-29T13:42:22.464Z,4.63
2018-09-29T13:44:52.157Z,4.87
2018-09-29T13:47:22.053Z,4.77
2018-09-29T13:49:52.118Z,5.50
2018-09-29T13:52:21.994Z,7.53
2018-09-29T13:54:51.748Z,6.30
2018-09-29T13:57:21.493Z,3.70
2018-09-29T13:59:51.277Z,6.23
2018-09-29T14:02:21.151Z,4.23
2018-09-29T14:04:50.817Z,4.10
2018-09-29T14:07:20.834Z,6.60
2018-09-29T14:09:50.539Z,1.87
2018-09-29T14:12:20.187Z,3.93
2018-09-29T14:14:49.907Z,8.07
2018-09-29T14:17:19.642Z,6.50
2018-09-29T14:19:49.359Z,3.27
2018-09-29T14:22:19.013Z,5.77
2018-09-29T14:24:48.645Z,5.33
2018-09-29T14:27:18.371Z,3.40
2018-09-29T14:29:48.146Z,6.77
2018-09-29T14:32:17.967Z,3.03
2018-09-29T14:34:47.658Z,2.80
2018-09-29T14:37:17.472Z,5.73
2018-09-29T14:39:47.183Z,3.40
2018-09-29T14:42:17.011Z,2.40
2018-09-29T14:44:46.762Z,3.50
2018-09-29T14:47:16.477Z,4.10
2018-09-29T14:49:46.378Z,2.33
2018-09-29T14:52:16.113Z,5.03
2018-09-29T14:54:45.866Z,6.73
2018-09-29T14:57:15.563Z,4.70
2018-09-29T14:59:45.241Z,4.57
2018-09-29T15:02:14.941Z,4.33
2018-09-29T15:04:44.757Z,3.27
2018-09-29T15:07:14.739Z,7.20
2018-09-29T15:09:44.626Z,4.07
2018-09-29T15:12:14.385Z,5.00
2018-09-29T15:14:44.334Z,7.50
2018-09-29T15:17:14.098Z,5.47
2018-09-29T15:19:43.804Z,4.47
2018-09-29T15:22:13.516Z,5.80
2018-09-29T15:24:43.393Z,3.07
2018-09-29T15:27:13.173Z,2.73
2018-09-29T15:29:43.092Z,5.27
2018-09-29T15:32:12.814Z,2.93
2018-09-29T15:34:42.497Z,2.87
2018-09-29T15:37:12.237Z,5.37
2018-09-29T15:39:41.947Z,3.20
2018-09-29T15:42:11.820Z,3.47
2018-09-29T15:44:41.585Z,8.40
2018-09-29T15:47:11.269Z,3.30
2018-09-29T15:49:41.888Z,6.80
2018-09-29T15:52:11.732Z,2.60
2018-09-29T15:54:41.419Z,4.90
2018-09-29T15:57:11.355Z,4.27
2018-09-29T15:59:41.102Z,4.73
2018-09-29T16:02:10.780Z,2.70
2018-09-29T16:04:40.694Z,4.50
2018-09-29T16:07:10.400Z,4.20
2018-09-29T16:09:40.160Z,6.53
2018-09-29T16:12:10.074Z,2.80
2018-09-29T16:14:39.759Z,2.20
2018-09-29T16:17:09.741Z,3.07
2018-09-29T16:19:39.489Z,5.03
2018-09-29T16:22:09.420Z,3.07
2018-09-29T16:24:39.243Z,2.83
2018-09-29T16:27:08.974Z,3.57
2018-09-29T16:29:38.661Z,6.07
2018-09-29T16:32:08.653Z,5.10
2018-09-29T16:34:39.140Z,4.93
2018-09-29T16:37:09.020Z,6.50
2018-09-29T16:39:39.005Z,6.30
2018-09-29T16:42:09.007Z,5.03
2018-09-29T16:44:38.791Z,4.90
2018-09-29T16:47:08.667Z,4.60
2018-09-29T16:49:38.485Z,2.50
2018-09-29T16:52:08.350Z,3.73
2018-09-29T16:54:38.116Z,2.40
2018-09-29T16:57:07.886Z,2.80
2018-09-29T16:59:37.594Z,6.50
2018-09-29T17:02:07.366Z,9.47
2018-09-29T17:04:37.333Z,6.13
2018-09-29T17:07:07.320Z,4.87
2018-09-29T17:09:37.313Z,4.17
2018-09-29T17:12:07.837Z,5.40
2018-09-29T17:14:37.557Z,6.00
2018-09-29T17:17:07.826Z,3.93
2018-09-29T17:19:37.815Z,6.30
2018-09-29T17:22:07.609Z,6.10
2018-09-29T17:24:37.399Z,9.73
2018-09-29T17:27:07.162Z,4.87
2018-09-29T17:29:36.921Z,4.80
2018-09-29T17:32:06.686Z,7.50
2018-09-29T17:34:36.342Z,3.90
2018-09-29T17:37:06.295Z,8.37
2018-09-29T17:39:36.041Z,4.00
2018-09-29T17:42:05.780Z,5.13
2018-09-29T17:44:35.605Z,5.13
2018-09-29T17:47:05.744Z,4.93
2018-09-29T17:49:35.590Z,8.10
2018-09-29T17:52:05.422Z,7.83
2018-09-29T17:54:35.203Z,7.72
2018-09-29T17:57:05.149Z,9.08
2018-09-29T17:59:34.881Z,7.40
2018-09-29T18:02:04.662Z,10.30
2018-09-29T18:04:34.507Z,5.03
2018-09-29T18:07:04.150Z,6.00
2018-09-29T18:09:33.912Z,7.00
2018-09-29T18:12:03.658Z,6.97
2018-09-29T18:14:33.490Z,6.35
2018-09-29T18:17:03.416Z,5.87
2018-09-29T18:19:33.230Z,5.30
2018-09-29T18:22:02.984Z,11.08
2018-09-29T18:24:32.936Z,8.15
2018-09-29T18:27:02.681Z,5.25
2018-09-29T18:29:32.671Z,14.70
2018-09-29T18:32:02.683Z,8.30
2018-09-29T18:34:32.510Z,15.80
2018-09-29T18:37:02.176Z,18.10
2018-09-29T18:39:31.896Z,20.15
2018-09-29T18:42:01.648Z,10.82
2018-09-29T18:44:31.376Z,10.03
2018-09-29T18:47:01.178Z,14.73
2018-09-29T18:49:30.850Z,13.13
2018-09-29T18:52:00.595Z,17.30
2018-09-29T18:54:30.504Z,53.68
2018-09-29T18:57:00.261Z,43.13
2018-09-29T18:59:30.070Z,30.08
2018-09-29T19:01:59.809Z,30.60
2018-09-29T19:04:29.578Z,25.88
2018-09-29T19:06:59.229Z,24.50
2018-09-29T19:09:28.950Z,22.40
2018-09-29T19:11:58.652Z,23.92
2018-09-29T19:14:28.439Z,24.25
2018-09-29T19:16:58.160Z,21.87
2018-09-29T19:19:27.923Z,34.70
2018-09-29T19:21:57.662Z,40.12
2018-09-29T19:24:27.583Z,37.67
2018-09-29T19:26:57.326Z,46.70
2018-09-29T19:29:27.046Z,38.55
2018-09-29T19:31:57.000Z,40.78
2018-09-29T19:34:26.702Z,32.58
2018-09-29T19:36:56.434Z,34.75
2018-09-29T19:39:26.425Z,39.00
2018-09-29T19:41:56.193Z,35.52
2018-09-29T19:44:26.031Z,37.30
2018-09-29T19:46:55.759Z,23.35
2018-09-29T19:49:25.415Z,25.05
2018-09-29T19:51:55.323Z,19.35
2018-09-29T19:54:25.201Z,17.15
2018-09-29T19:56:55.048Z,10.82
2018-09-29T19:59:24.833Z,14.95
2018-09-29T20:01:54.535Z,10.05
2018-09-29T20:04:24.590Z,10.43
2018-09-29T20:06:54.375Z,15.18
2018-09-29T20:09:24.076Z,8.13
2018-09-29T20:11:53.841Z,9.33
2018-09-29T20:14:23.616Z,9.45
2018-09-29T20:16:54.510Z,9.85
2018-09-29T20:19:24.189Z,6.55
2018-09-29T20:21:53.885Z,10.08
2018-09-29T20:24:23.720Z,8.03
2018-09-29T20:26:53.347Z,10.15
2018-09-29T20:29:23.167Z,12.10
2018-09-29T20:31:52.942Z,10.30
2018-09-29T20:34:25.587Z,13.60
2018-09-29T20:36:55.464Z,10.85
2018-09-29T20:39:25.399Z,11.22
2018-09-29T20:41:55.350Z,12.45
2018-09-29T20:44:25.250Z,10.43
2018-09-29T20:46:55.003Z,6.58
2018-09-29T20:49:24.952Z,11.85
2018-09-29T20:51:54.537Z,7.65
2018-09-29T20:54:24.432Z,7.50
2018-09-29T20:56:54.116Z,6.40
2018-09-29T20:59:23.896Z,10.13
2018-09-29T21:01:53.658Z,12.80
2018-09-29T21:04:23.415Z,8.93
2018-09-29T21:06:53.173Z,6.67
2018-09-29T21:09:22.893Z,8.70
2018-09-29T21:11:52.694Z,6.10
2018-09-29T21:14:22.438Z,8.30
2018-09-29T21:16:52.463Z,12.00
2018-09-29T21:19:22.205Z,12.53
2018-09-29T21:21:51.950Z,8.65
2018-09-29T21:24:21.643Z,12.47
2018-09-29T21:26:51.348Z,8.20
2018-09-29T21:29:21.186Z,9.18
2018-09-29T21:31:50.994Z,7.70
2018-09-29T21:34:20.679Z,7.75
2018-09-29T21:36:50.365Z,8.45
2018-09-29T21:39:20.120Z,12.03
2018-09-29T21:41:49.882Z,9.58
2018-09-29T21:44:19.749Z,13.15
2018-09-29T21:46:49.444Z,12.05
2018-09-29T21:49:19.337Z,9.05
2018-09-29T21:51:49.420Z,7.60
2018-09-29T21:54:19.145Z,8.05
2018-09-29T21:56:48.823Z,10.28
2018-09-29T21:59:18.568Z,7.47
2018-09-29T22:01:48.320Z,10.70
2018-09-29T22:04:17.962Z,12.18
2018-09-29T22:06:47.673Z,8.23
2018-09-29T22:09:21.540Z,10.45
2018-09-29T22:11:51.921Z,7.47
2018-09-29T22:14:21.600Z,12.10
2018-09-29T22:16:51.296Z,9.53
2018-09-29T22:19:21.049Z,12.15
2018-09-29T22:21:50.788Z,7.90
2018-09-29T22:24:20.545Z,13.22
2018-09-29T22:26:50.401Z,8.50
2018-09-29T22:29:20.086Z,13.62
2018-09-29T22:31:49.944Z,11.60
2018-09-29T22:34:19.590Z,12.33
2018-09-29T22:36:49.391Z,12.73
2018-09-29T22:39:19.226Z,13.38
2018-09-29T22:41:48.986Z,21.97
2018-09-29T22:44:18.688Z,14.47
2018-09-29T22:46:48.384Z,20.32
2018-09-29T22:49:17.998Z,19.20
2018-09-29T22:51:47.862Z,18.02
2018-09-29T22:54:17.605Z,16.15
2018-09-29T22:56:47.381Z,18.05
2018-09-29T22:59:17.013Z,18.60
2018-09-29T23:01:46.716Z,12.20
2018-09-29T23:04:16.427Z,12.20
2018-09-29T23:06:46.119Z,16.52
2018-09-29T23:09:15.878Z,11.03
2018-09-29T23:11:45.592Z,9.83
2018-09-29T23:14:15.277Z,14.15
2018-09-29T23:16:45.064Z,16.05
2018-09-29T23:19:14.897Z,16.02
2018-09-29T23:21:44.489Z,11.08
2018-09-29T23:24:14.158Z,12.75
2018-09-29T23:26:43.838Z,11.00
2018-09-29T23:29:13.630Z,12.25
2018-09-29T23:31:43.286Z,6.05
2018-09-29T23:34:12.967Z,9.95
2018-09-29T23:36:42.707Z,6.80
2018-09-29T23:39:12.434Z,9.33
2018-09-29T23:41:42.175Z,10.35
2018-09-29T23:44:11.868Z,6.60
2018-09-29T23:46:42.129Z,6.17
2018-09-29T23:49:11.772Z,10.23
2018-09-29T23:51:41.518Z,6.70
2018-09-29T23:54:11.183Z,6.78
2018-09-29T23:56:40.887Z,9.00
2018-09-29T23:59:10.886Z,8.25
